sensor_id;sensor_type;location;lat;lon;timestamp;pressure;altitude;pressure_sealevel;temperature;humidity
9740;BME280;4909;42.680;26.324;2024-03-06T00:02:20;98301.81;;;10.74;100.00
9740;BME280;4909;42.680;26.324;2024-03-06T00:04:46;98290.56;;;10.86;99.59
9740;BME280;4909;42.680;26.324;2024-03-06T00:07:15;98286.53;;;10.79;99.14
9740;BME280;4909;42.680;26.324;2024-03-06T00:09:42;98302.34;;;10.80;98.63
9740;BME280;4909;42.680;26.324;2024-03-06T00:12:10;98299.00;;;10.77;98.33
9740;BME280;4909;42.680;26.324;2024-03-06T00:14:37;98311.19;;;10.64;99.07
9740;BME280;4909;42.680;26.324;2024-03-06T00:17:04;98313.31;;;10.74;99.13
9740;BME280;4909;42.680;26.324;2024-03-06T00:19:32;98315.75;;;10.60;99.49
9740;BME280;4909;42.680;26.324;2024-03-06T00:21:59;98311.41;;;10.76;98.99
9740;BME280;4909;42.680;26.324;2024-03-06T00:24:28;98321.16;;;10.76;97.32
9740;BME280;4909;42.680;26.324;2024-03-06T00:26:55;98316.53;;;10.45;98.04
9740;BME280;4909;42.680;26.324;2024-03-06T00:29:22;98316.38;;;10.48;98.64
9740;BME280;4909;42.680;26.324;2024-03-06T00:31:49;98286.31;;;10.12;99.15
9740;BME280;4909;42.680;26.324;2024-03-06T00:34:16;98328.66;;;10.32;99.31
9740;BME280;4909;42.680;26.324;2024-03-06T00:36:43;98327.84;;;10.49;97.90
9740;BME280;4909;42.680;26.324;2024-03-06T00:39:10;98324.22;;;10.32;99.23
9740;BME280;4909;42.680;26.324;2024-03-06T00:41:41;98327.72;;;10.33;99.39
9740;BME280;4909;42.680;26.324;2024-03-06T00:44:08;98302.09;;;9.96;100.00
9740;BME280;4909;42.680;26.324;2024-03-06T00:46:35;98322.22;;;10.19;100.00
9740;BME280;4909;42.680;26.324;2024-03-06T00:49:03;98322.19;;;10.20;100.00
9740;BME280;4909;42.680;26.324;2024-03-06T00:51:30;98327.91;;;10.30;100.00
9740;BME280;4909;42.680;26.324;2024-03-06T00:53:57;98316.00;;;10.20;100.00
9740;BME280;4909;42.680;26.324;2024-03-06T00:56:24;98324.94;;;10.17;100.00
9740;BME280;4909;42.680;26.324;2024-03-06T00:58:52;98330.09;;;10.39;100.00
9740;BME280;4909;42.680;26.324;2024-03-06T01:01:19;98338.41;;;10.50;100.00
9740;BME280;4909;42.680;26.324;2024-03-06T01:03:46;98345.13;;;10.57;100.00
9740;BME280;4909;42.680;26.324;2024-03-06T01:06:13;98322.84;;;10.42;100.00
9740;BME280;4909;42.680;26.324;2024-03-06T01:08:40;98328.78;;;10.48;100.00
9740;BME280;4909;42.680;26.324;2024-03-06T01:11:07;98345.34;;;10.70;100.00
9740;BME280;4909;42.680;26.324;2024-03-06T01:13:35;98334.84;;;10.68;100.00
9740;BME280;4909;42.680;26.324;2024-03-06T01:16:05;98341.88;;;10.69;100.00
9740;BME280;4909;42.680;26.324;2024-03-06T01:18:32;98352.22;;;10.57;100.00
9740;BME280;4909;42.680;26.324;2024-03-06T01:20:59;98352.91;;;10.60;100.00
9740;BME280;4909;42.680;26.324;2024-03-06T01:23:26;98356.25;;;10.46;99.10
9740;BME280;4909;42.680;26.324;2024-03-06T01:25:53;98353.91;;;10.40;99.46
9740;BME280;4909;42.680;26.324;2024-03-06T01:28:20;98361.56;;;10.46;99.02
9740;BME280;4909;42.680;26.324;2024-03-06T01:30:47;98350.66;;;10.53;98.52
9740;BME280;4909;42.680;26.324;2024-03-06T01:33:15;98356.53;;;10.76;97.57
9740;BME280;4909;42.680;26.324;2024-03-06T01:35:42;98301.88;;;10.55;96.49
9740;BME280;4909;42.680;26.324;2024-03-06T01:38:09;98375.28;;;10.90;96.52
9740;BME280;4909;42.680;26.324;2024-03-06T01:40:37;98382.09;;;10.79;95.81
9740;BME280;4909;42.680;26.324;2024-03-06T01:43:04;98366.50;;;10.54;96.83
9740;BME280;4909;42.680;26.324;2024-03-06T01:45:31;98361.09;;;10.56;97.41
9740;BME280;4909;42.680;26.324;2024-03-06T01:47:58;98372.94;;;10.84;95.20
9740;BME280;4909;42.680;26.324;2024-03-06T01:50:26;98379.56;;;10.76;95.57
9740;BME280;4909;42.680;26.324;2024-03-06T01:52:53;98381.03;;;10.64;96.65
9740;BME280;4909;42.680;26.324;2024-03-06T01:55:20;98349.94;;;10.49;96.27
9740;BME280;4909;42.680;26.324;2024-03-06T01:57:47;98386.78;;;10.74;96.81
9740;BME280;4909;42.680;26.324;2024-03-06T02:00:15;98354.19;;;10.70;95.13
9740;BME280;4909;42.680;26.324;2024-03-06T02:02:43;98395.78;;;10.88;95.07
9740;BME280;4909;42.680;26.324;2024-03-06T02:05:10;98352.72;;;10.82;94.89
9740;BME280;4909;42.680;26.324;2024-03-06T02:07:39;98394.69;;;10.93;94.72
9740;BME280;4909;42.680;26.324;2024-03-06T02:10:07;98351.78;;;10.83;94.17
9740;BME280;4909;42.680;26.324;2024-03-06T02:12:35;98369.00;;;10.93;93.84
9740;BME280;4909;42.680;26.324;2024-03-06T02:15:03;98370.38;;;10.83;94.42
9740;BME280;4909;42.680;26.324;2024-03-06T02:17:31;98368.84;;;10.60;95.84
9740;BME280;4909;42.680;26.324;2024-03-06T02:19:59;98382.44;;;10.71;95.74
9740;BME280;4909;42.680;26.324;2024-03-06T02:22:28;98383.53;;;10.67;96.13
9740;BME280;4909;42.680;26.324;2024-03-06T02:24:55;98366.94;;;10.45;97.18
9740;BME280;4909;42.680;26.324;2024-03-06T02:27:22;98387.97;;;10.67;96.61
9740;BME280;4909;42.680;26.324;2024-03-06T02:29:49;98351.31;;;10.39;96.00
9740;BME280;4909;42.680;26.324;2024-03-06T02:32:16;98390.50;;;10.51;96.53
9740;BME280;4909;42.680;26.324;2024-03-06T02:34:43;98383.81;;;10.61;96.06
9740;BME280;4909;42.680;26.324;2024-03-06T02:37:10;98395.03;;;10.85;94.82
9740;BME280;4909;42.680;26.324;2024-03-06T02:39:39;98398.81;;;10.62;95.40
9740;BME280;4909;42.680;26.324;2024-03-06T02:42:06;98359.97;;;10.42;96.68
9740;BME280;4909;42.680;26.324;2024-03-06T02:44:33;98386.19;;;10.67;96.46
9740;BME280;4909;42.680;26.324;2024-03-06T02:47:00;98399.34;;;10.87;95.49
9740;BME280;4909;42.680;26.324;2024-03-06T02:49:27;98380.50;;;10.75;94.82
9740;BME280;4909;42.680;26.324;2024-03-06T02:51:54;98402.31;;;10.81;95.47
9740;BME280;4909;42.680;26.324;2024-03-06T02:54:21;98378.94;;;10.71;95.27
9740;BME280;4909;42.680;26.324;2024-03-06T02:56:52;98401.97;;;10.70;95.74
9740;BME280;4909;42.680;26.324;2024-03-06T02:59:19;98392.13;;;10.72;95.94
9740;BME280;4909;42.680;26.324;2024-03-06T03:01:46;98397.16;;;10.78;96.14
9740;BME280;4909;42.680;26.324;2024-03-06T03:04:13;98390.56;;;10.68;95.78
9740;BME280;4909;42.680;26.324;2024-03-06T03:06:40;98396.25;;;10.61;96.89
9740;BME280;4909;42.680;26.324;2024-03-06T03:09:07;98399.69;;;10.63;96.60
9740;BME280;4909;42.680;26.324;2024-03-06T03:11:48;98348.19;;;10.31;96.87
9740;BME280;4909;42.680;26.324;2024-03-06T03:14:16;98401.78;;;10.56;97.05
9740;BME280;4909;42.680;26.324;2024-03-06T03:16:44;98362.50;;;10.27;97.37
9740;BME280;4909;42.680;26.324;2024-03-06T03:19:11;98385.16;;;10.53;97.45
9740;BME280;4909;42.680;26.324;2024-03-06T03:21:38;98404.03;;;10.82;96.46
9740;BME280;4909;42.680;26.324;2024-03-06T03:24:05;98404.72;;;10.86;95.33
9740;BME280;4909;42.680;26.324;2024-03-06T03:26:32;98406.97;;;10.76;95.60
9740;BME280;4909;42.680;26.324;2024-03-06T03:29:01;98410.00;;;10.69;95.66
9740;BME280;4909;42.680;26.324;2024-03-06T03:31:28;98399.66;;;10.45;96.48
9740;BME280;4909;42.680;26.324;2024-03-06T03:33:55;98400.47;;;10.46;96.78
9740;BME280;4909;42.680;26.324;2024-03-06T03:36:22;98382.78;;;10.46;96.35
9740;BME280;4909;42.680;26.324;2024-03-06T03:38:50;98401.47;;;10.62;96.69
9740;BME280;4909;42.680;26.324;2024-03-06T03:41:17;98399.41;;;10.69;96.63
9740;BME280;4909;42.680;26.324;2024-03-06T03:43:45;98381.13;;;10.07;98.32
9740;BME280;4909;42.680;26.324;2024-03-06T03:46:13;98400.66;;;10.24;99.64
9740;BME280;4909;42.680;26.324;2024-03-06T03:48:40;98389.53;;;10.35;99.04
9740;BME280;4909;42.680;26.324;2024-03-06T03:51:07;98398.16;;;10.40;98.23
9740;BME280;4909;42.680;26.324;2024-03-06T03:53:34;98385.22;;;10.51;98.07
9740;BME280;4909;42.680;26.324;2024-03-06T03:56:02;98412.97;;;10.80;96.48
9740;BME280;4909;42.680;26.324;2024-03-06T03:58:29;98416.88;;;10.73;96.23
9740;BME280;4909;42.680;26.324;2024-03-06T04:00:56;98403.66;;;10.54;97.01
9740;BME280;4909;42.680;26.324;2024-03-06T04:03:24;98440.06;;;10.51;97.19
9740;BME280;4909;42.680;26.324;2024-03-06T04:05:51;98431.50;;;10.45;98.30
9740;BME280;4909;42.680;26.324;2024-03-06T04:08:18;98432.84;;;10.35;99.15
9740;BME280;4909;42.680;26.324;2024-03-06T04:10:45;98428.97;;;10.42;99.75
9740;BME280;4909;42.680;26.324;2024-03-06T04:13:14;98381.47;;;9.99;99.74
9740;BME280;4909;42.680;26.324;2024-03-06T04:15:41;98435.41;;;10.37;100.00
9740;BME280;4909;42.680;26.324;2024-03-06T04:18:08;98441.44;;;10.59;98.51
9740;BME280;4909;42.680;26.324;2024-03-06T04:20:37;98442.00;;;10.66;98.33
9740;BME280;4909;42.680;26.324;2024-03-06T04:23:05;98437.34;;;10.52;98.63
9740;BME280;4909;42.680;26.324;2024-03-06T04:25:33;98446.53;;;10.64;98.49
9740;BME280;4909;42.680;26.324;2024-03-06T04:28:00;98450.63;;;10.52;99.59
9740;BME280;4909;42.680;26.324;2024-03-06T04:30:28;98420.72;;;10.30;99.99
9740;BME280;4909;42.680;26.324;2024-03-06T04:32:55;98440.44;;;10.62;99.45
9740;BME280;4909;42.680;26.324;2024-03-06T04:35:22;98443.50;;;10.71;99.54
9740;BME280;4909;42.680;26.324;2024-03-06T04:37:50;98435.09;;;10.80;99.12
9740;BME280;4909;42.680;26.324;2024-03-06T04:40:17;98451.97;;;10.79;98.84
9740;BME280;4909;42.680;26.324;2024-03-06T04:42:47;98441.88;;;10.69;98.43
9740;BME280;4909;42.680;26.324;2024-03-06T04:45:15;98437.06;;;10.58;99.12
9740;BME280;4909;42.680;26.324;2024-03-06T04:47:42;98432.41;;;10.63;99.06
9740;BME280;4909;42.680;26.324;2024-03-06T04:50:10;98452.59;;;10.66;99.18
9740;BME280;4909;42.680;26.324;2024-03-06T04:52:38;98443.78;;;10.65;99.28
9740;BME280;4909;42.680;26.324;2024-03-06T04:55:08;98441.16;;;10.46;99.39
9740;BME280;4909;42.680;26.324;2024-03-06T04:57:37;98439.94;;;10.54;99.29
9740;BME280;4909;42.680;26.324;2024-03-06T05:00:05;98444.38;;;10.53;100.00
9740;BME280;4909;42.680;26.324;2024-03-06T05:02:32;98425.59;;;10.58;99.23
9740;BME280;4909;42.680;26.324;2024-03-06T05:04:59;98444.00;;;10.61;99.61
9740;BME280;4909;42.680;26.324;2024-03-06T05:07:28;98443.22;;;10.77;98.71
9740;BME280;4909;42.680;26.324;2024-03-06T05:09:55;98455.97;;;10.88;97.95
9740;BME280;4909;42.680;26.324;2024-03-06T05:12:24;98441.28;;;10.62;98.22
9740;BME280;4909;42.680;26.324;2024-03-06T05:14:51;98467.09;;;10.77;98.25
9740;BME280;4909;42.680;26.324;2024-03-06T05:17:18;98438.00;;;10.38;98.02
9740;BME280;4909;42.680;26.324;2024-03-06T05:19:45;98467.81;;;10.25;98.99
9740;BME280;4909;42.680;26.324;2024-03-06T05:22:13;98454.66;;;9.83;100.00
9740;BME280;4909;42.680;26.324;2024-03-06T05:24:40;98472.78;;;9.53;100.00
9740;BME280;4909;42.680;26.324;2024-03-06T05:27:08;98464.88;;;9.31;100.00
9740;BME280;4909;42.680;26.324;2024-03-06T05:29:36;98473.50;;;9.56;100.00
9740;BME280;4909;42.680;26.324;2024-03-06T05:32:03;98471.56;;;10.00;100.00
9740;BME280;4909;42.680;26.324;2024-03-06T05:34:30;98468.59;;;9.47;100.00
9740;BME280;4909;42.680;26.324;2024-03-06T05:36:57;98482.78;;;9.87;100.00
9740;BME280;4909;42.680;26.324;2024-03-06T05:39:24;98485.44;;;9.87;100.00
9740;BME280;4909;42.680;26.324;2024-03-06T05:41:51;98489.06;;;9.44;100.00
9740;BME280;4909;42.680;26.324;2024-03-06T05:44:18;98477.63;;;9.43;100.00
9740;BME280;4909;42.680;26.324;2024-03-06T05:46:46;98467.22;;;9.39;100.00
9740;BME280;4909;42.680;26.324;2024-03-06T05:49:13;98496.91;;;9.87;100.00
9740;BME280;4909;42.680;26.324;2024-03-06T05:51:40;98490.59;;;9.90;100.00
9740;BME280;4909;42.680;26.324;2024-03-06T05:54:07;98504.72;;;9.90;100.00
9740;BME280;4909;42.680;26.324;2024-03-06T05:56:34;98507.00;;;9.98;100.00
9740;BME280;4909;42.680;26.324;2024-03-06T05:59:01;98511.53;;;10.16;100.00
9740;BME280;4909;42.680;26.324;2024-03-06T06:01:33;98518.84;;;10.50;98.08
9740;BME280;4909;42.680;26.324;2024-03-06T06:04:02;98515.56;;;10.25;98.55
9740;BME280;4909;42.680;26.324;2024-03-06T06:06:29;98522.91;;;10.38;97.67
9740;BME280;4909;42.680;26.324;2024-03-06T06:08:57;98514.44;;;10.30;97.94
9740;BME280;4909;42.680;26.324;2024-03-06T06:11:24;98508.44;;;10.45;96.15
9740;BME280;4909;42.680;26.324;2024-03-06T06:13:51;98518.03;;;10.48;96.68
9740;BME280;4909;42.680;26.324;2024-03-06T06:16:17;98449.47;;;10.00;96.57
9740;BME280;4909;42.680;26.324;2024-03-06T06:18:44;98530.72;;;10.41;96.84
9740;BME280;4909;42.680;26.324;2024-03-06T06:21:13;98528.94;;;10.61;95.90
9740;BME280;4909;42.680;26.324;2024-03-06T06:23:40;98533.91;;;10.68;95.52
9740;BME280;4909;42.680;26.324;2024-03-06T06:26:08;98525.00;;;10.69;94.71
9740;BME280;4909;42.680;26.324;2024-03-06T06:28:36;98538.84;;;10.76;94.68
9740;BME280;4909;42.680;26.324;2024-03-06T06:31:03;98530.88;;;10.76;94.75
9740;BME280;4909;42.680;26.324;2024-03-06T06:33:30;98534.88;;;10.84;94.55
9740;BME280;4909;42.680;26.324;2024-03-06T06:35:57;98539.84;;;10.92;93.58
9740;BME280;4909;42.680;26.324;2024-03-06T06:38:25;98546.97;;;10.92;92.91
9740;BME280;4909;42.680;26.324;2024-03-06T06:40:52;98523.28;;;10.87;92.63
9740;BME280;4909;42.680;26.324;2024-03-06T06:43:19;98531.94;;;10.90;91.36
9740;BME280;4909;42.680;26.324;2024-03-06T06:45:46;98537.47;;;11.05;91.64
9740;BME280;4909;42.680;26.324;2024-03-06T06:48:14;98484.88;;;10.75;92.07
9740;BME280;4909;42.680;26.324;2024-03-06T06:50:41;98532.72;;;11.11;91.94
9740;BME280;4909;42.680;26.324;2024-03-06T06:53:08;98555.97;;;11.25;91.24
9740;BME280;4909;42.680;26.324;2024-03-06T06:55:36;98554.66;;;11.33;91.23
9740;BME280;4909;42.680;26.324;2024-03-06T06:58:04;98558.09;;;11.36;91.36
9740;BME280;4909;42.680;26.324;2024-03-06T07:00:31;98550.09;;;11.54;90.48
9740;BME280;4909;42.680;26.324;2024-03-06T07:02:59;98556.97;;;11.58;90.61
9740;BME280;4909;42.680;26.324;2024-03-06T07:05:26;98548.44;;;11.52;91.42
9740;BME280;4909;42.680;26.324;2024-03-06T07:07:53;98522.47;;;11.40;91.00
9740;BME280;4909;42.680;26.324;2024-03-06T07:10:21;98556.44;;;11.69;91.12
9740;BME280;4909;42.680;26.324;2024-03-06T07:12:50;98556.56;;;11.85;89.74
9740;BME280;4909;42.680;26.324;2024-03-06T07:15:17;98548.50;;;12.03;88.89
9740;BME280;4909;42.680;26.324;2024-03-06T07:17:44;98546.78;;;12.19;88.58
9740;BME280;4909;42.680;26.324;2024-03-06T07:20:11;98558.84;;;12.42;87.71
9740;BME280;4909;42.680;26.324;2024-03-06T07:22:39;98555.88;;;12.31;88.20
9740;BME280;4909;42.680;26.324;2024-03-06T07:25:07;98569.31;;;12.45;88.68
9740;BME280;4909;42.680;26.324;2024-03-06T07:27:35;98564.31;;;12.56;88.79
9740;BME280;4909;42.680;26.324;2024-03-06T07:30:04;98567.63;;;12.77;87.72
9740;BME280;4909;42.680;26.324;2024-03-06T07:32:32;98564.84;;;12.79;86.09
9740;BME280;4909;42.680;26.324;2024-03-06T07:34:59;98572.69;;;12.82;85.28
9740;BME280;4909;42.680;26.324;2024-03-06T07:37:26;98578.88;;;12.98;84.92
9740;BME280;4909;42.680;26.324;2024-03-06T07:39:53;98552.13;;;12.68;83.86
9740;BME280;4909;42.680;26.324;2024-03-06T07:42:20;98578.78;;;12.68;84.45
9740;BME280;4909;42.680;26.324;2024-03-06T07:44:47;98575.81;;;12.57;84.60
9740;BME280;4909;42.680;26.324;2024-03-06T07:47:17;98577.91;;;12.83;83.09
9740;BME280;4909;42.680;26.324;2024-03-06T07:49:43;98571.75;;;12.83;81.82
9740;BME280;4909;42.680;26.324;2024-03-06T07:52:10;98581.69;;;12.79;82.56
9740;BME280;4909;42.680;26.324;2024-03-06T07:54:37;98570.84;;;12.67;83.84
9740;BME280;4909;42.680;26.324;2024-03-06T07:57:05;98580.06;;;12.77;83.79
9740;BME280;4909;42.680;26.324;2024-03-06T07:59:32;98581.78;;;12.78;83.36
9740;BME280;4909;42.680;26.324;2024-03-06T08:01:59;98577.72;;;12.20;85.88
9740;BME280;4909;42.680;26.324;2024-03-06T08:04:28;98581.25;;;12.21;86.62
9740;BME280;4909;42.680;26.324;2024-03-06T08:06:54;98584.78;;;12.22;86.23
9740;BME280;4909;42.680;26.324;2024-03-06T08:09:21;98578.22;;;11.94;87.85
9740;BME280;4909;42.680;26.324;2024-03-06T08:11:49;98585.72;;;12.03;88.15
9740;BME280;4909;42.680;26.324;2024-03-06T08:14:16;98581.25;;;12.21;87.68
9740;BME280;4909;42.680;26.324;2024-03-06T08:16:43;98591.44;;;12.13;88.04
9740;BME280;4909;42.680;26.324;2024-03-06T08:19:10;98586.22;;;11.94;89.16
9740;BME280;4909;42.680;26.324;2024-03-06T08:21:38;98574.53;;;12.14;88.31
9740;BME280;4909;42.680;26.324;2024-03-06T08:24:05;98591.19;;;12.35;87.18
9740;BME280;4909;42.680;26.324;2024-03-06T08:26:32;98593.50;;;12.58;85.85
9740;BME280;4909;42.680;26.324;2024-03-06T08:28:59;98591.25;;;12.50;85.96
9740;BME280;4909;42.680;26.324;2024-03-06T08:31:26;98588.94;;;12.27;87.59
9740;BME280;4909;42.680;26.324;2024-03-06T08:33:53;98584.78;;;12.22;88.33
9740;BME280;4909;42.680;26.324;2024-03-06T08:36:20;98585.41;;;12.27;88.25
9740;BME280;4909;42.680;26.324;2024-03-06T08:38:49;98565.06;;;12.26;87.30
9740;BME280;4909;42.680;26.324;2024-03-06T08:41:16;98590.63;;;12.45;87.27
9740;BME280;4909;42.680;26.324;2024-03-06T08:43:43;98601.06;;;12.83;85.80
9740;BME280;4909;42.680;26.324;2024-03-06T08:46:11;98599.31;;;12.82;85.23
9740;BME280;4909;42.680;26.324;2024-03-06T08:48:38;98590.78;;;12.75;85.11
9740;BME280;4909;42.680;26.324;2024-03-06T08:51:05;98590.31;;;13.00;83.48
9740;BME280;4909;42.680;26.324;2024-03-06T08:53:36;98591.28;;;14.07;82.37
9740;BME280;4909;42.680;26.324;2024-03-06T08:56:06;98623.88;;;15.14;74.49
9740;BME280;4909;42.680;26.324;2024-03-06T08:58:33;98627.97;;;15.20;72.55
9740;BME280;4909;42.680;26.324;2024-03-06T09:01:00;98623.88;;;15.00;72.66
9740;BME280;4909;42.680;26.324;2024-03-06T09:03:27;98628.34;;;15.28;73.02
9740;BME280;4909;42.680;26.324;2024-03-06T09:05:54;98630.69;;;15.61;70.66
9740;BME280;4909;42.680;26.324;2024-03-06T09:08:21;98637.47;;;15.93;67.41
9740;BME280;4909;42.680;26.324;2024-03-06T09:10:48;98625.94;;;15.52;67.73
9740;BME280;4909;42.680;26.324;2024-03-06T09:13:16;98631.00;;;15.28;69.20
9740;BME280;4909;42.680;26.324;2024-03-06T09:15:43;98603.25;;;15.02;69.39
9740;BME280;4909;42.680;26.324;2024-03-06T09:18:10;98627.28;;;14.74;69.85
9740;BME280;4909;42.680;26.324;2024-03-06T09:20:37;98608.22;;;14.66;69.53
9740;BME280;4909;42.680;26.324;2024-03-06T09:23:04;98632.53;;;15.18;67.74
9740;BME280;4909;42.680;26.324;2024-03-06T09:25:31;98629.47;;;15.38;65.85
9740;BME280;4909;42.680;26.324;2024-03-06T09:27:58;98630.50;;;15.36;65.75
9740;BME280;4909;42.680;26.324;2024-03-06T09:30:31;98638.31;;;15.67;64.06
9740;BME280;4909;42.680;26.324;2024-03-06T09:32:58;98641.97;;;15.38;65.25
9740;BME280;4909;42.680;26.324;2024-03-06T09:35:25;98633.66;;;15.42;65.82
9740;BME280;4909;42.680;26.324;2024-03-06T09:37:52;98634.84;;;15.79;64.09
9740;BME280;4909;42.680;26.324;2024-03-06T09:40:20;98615.69;;;15.85;61.88
9740;BME280;4909;42.680;26.324;2024-03-06T09:42:48;98649.06;;;15.80;62.37
9740;BME280;4909;42.680;26.324;2024-03-06T09:45:15;98641.91;;;15.80;62.71
9740;BME280;4909;42.680;26.324;2024-03-06T09:47:45;98643.19;;;15.46;63.45
9740;BME280;4909;42.680;26.324;2024-03-06T09:50:16;98633.84;;;15.68;62.95
9740;BME280;4909;42.680;26.324;2024-03-06T09:52:48;98640.44;;;15.62;62.74
9740;BME280;4909;42.680;26.324;2024-03-06T09:55:17;98641.69;;;15.56;63.12
9740;BME280;4909;42.680;26.324;2024-03-06T09:57:44;98631.41;;;14.94;65.01
9740;BME280;4909;42.680;26.324;2024-03-06T10:00:12;98638.78;;;15.04;65.65
9740;BME280;4909;42.680;26.324;2024-03-06T10:02:44;98649.06;;;15.10;64.92
9740;BME280;4909;42.680;26.324;2024-03-06T10:05:22;98647.25;;;15.11;65.35
9740;BME280;4909;42.680;26.324;2024-03-06T10:07:51;98644.09;;;15.18;64.13
9740;BME280;4909;42.680;26.324;2024-03-06T10:10:19;98643.13;;;15.34;64.43
9740;BME280;4909;42.680;26.324;2024-03-06T10:12:46;98652.91;;;15.76;63.77
9740;BME280;4909;42.680;26.324;2024-03-06T10:15:14;98658.53;;;15.85;62.54
9740;BME280;4909;42.680;26.324;2024-03-06T10:17:41;98639.84;;;15.71;62.01
9740;BME280;4909;42.680;26.324;2024-03-06T10:20:19;98600.91;;;15.39;62.02
9740;BME280;4909;42.680;26.324;2024-03-06T10:22:49;98659.78;;;15.80;62.27
9740;BME280;4909;42.680;26.324;2024-03-06T10:25:19;98635.19;;;15.60;62.27
9740;BME280;4909;42.680;26.324;2024-03-06T10:27:47;98642.31;;;15.74;62.18
9740;BME280;4909;42.680;26.324;2024-03-06T10:30:27;98629.72;;;15.89;60.53
9740;BME280;4909;42.680;26.324;2024-03-06T10:32:54;98633.41;;;15.74;60.54
9740;BME280;4909;42.680;26.324;2024-03-06T10:35:21;98629.44;;;15.67;61.11
9740;BME280;4909;42.680;26.324;2024-03-06T10:37:52;98635.75;;;15.65;60.72
9740;BME280;4909;42.680;26.324;2024-03-06T10:40:22;98622.31;;;15.53;62.19
9740;BME280;4909;42.680;26.324;2024-03-06T10:42:50;98629.19;;;15.84;61.44
9740;BME280;4909;42.680;26.324;2024-03-06T10:45:20;98616.81;;;15.95;59.64
9740;BME280;4909;42.680;26.324;2024-03-06T10:47:51;98624.31;;;16.03;59.53
9740;BME280;4909;42.680;26.324;2024-03-06T10:50:18;98620.97;;;16.26;59.12
9740;BME280;4909;42.680;26.324;2024-03-06T10:52:47;98621.84;;;16.39;57.55
9740;BME280;4909;42.680;26.324;2024-03-06T10:55:17;98610.69;;;16.33;56.66
9740;BME280;4909;42.680;26.324;2024-03-06T10:57:46;98589.66;;;16.27;56.12
9740;BME280;4909;42.680;26.324;2024-03-06T11:00:15;98605.16;;;16.48;56.89
9740;BME280;4909;42.680;26.324;2024-03-06T11:02:46;98596.72;;;16.67;56.05
9740;BME280;4909;42.680;26.324;2024-03-06T11:05:15;98598.13;;;16.98;55.34
9740;BME280;4909;42.680;26.324;2024-03-06T11:07:42;98593.94;;;16.81;53.77
9740;BME280;4909;42.680;26.324;2024-03-06T11:10:09;98572.78;;;16.26;55.16
9740;BME280;4909;42.680;26.324;2024-03-06T11:12:43;98534.78;;;15.94;55.09
9740;BME280;4909;42.680;26.324;2024-03-06T11:15:15;98561.84;;;15.77;56.88
9740;BME280;4909;42.680;26.324;2024-03-06T11:17:43;98575.59;;;15.58;58.21
9740;BME280;4909;42.680;26.324;2024-03-06T11:20:16;98574.34;;;14.95;61.72
9740;BME280;4909;42.680;26.324;2024-03-06T11:23:02;98573.69;;;15.32;61.25
9740;BME280;4909;42.680;26.324;2024-03-06T11:25:55;98570.63;;;15.38;60.08
9740;BME280;4909;42.680;26.324;2024-03-06T11:28:26;98546.50;;;15.26;59.83
9740;BME280;4909;42.680;26.324;2024-03-06T11:30:58;98572.44;;;15.38;60.74
9740;BME280;4909;42.680;26.324;2024-03-06T11:33:29;98566.03;;;15.40;60.55
9740;BME280;4909;42.680;26.324;2024-03-06T11:36:15;98569.50;;;15.28;57.63
9740;BME280;4909;42.680;26.324;2024-03-06T11:38:42;98573.66;;;15.19;58.79
9740;BME280;4909;42.680;26.324;2024-03-06T11:41:10;98566.84;;;15.28;58.42
9740;BME280;4909;42.680;26.324;2024-03-06T11:43:44;98563.34;;;15.13;59.14
9740;BME280;4909;42.680;26.324;2024-03-06T11:46:11;98565.81;;;15.16;59.24
9740;BME280;4909;42.680;26.324;2024-03-06T11:48:38;98563.97;;;15.31;58.25
9740;BME280;4909;42.680;26.324;2024-03-06T11:51:06;98564.84;;;15.17;58.66
9740;BME280;4909;42.680;26.324;2024-03-06T11:53:34;98550.94;;;14.98;59.36
9740;BME280;4909;42.680;26.324;2024-03-06T11:56:05;98533.28;;;14.82;59.91
9740;BME280;4909;42.680;26.324;2024-03-06T11:58:33;98560.97;;;15.09;58.98
9740;BME280;4909;42.680;26.324;2024-03-06T12:01:02;98559.47;;;15.32;59.67
9740;BME280;4909;42.680;26.324;2024-03-06T12:03:29;98562.63;;;15.38;58.95
9740;BME280;4909;42.680;26.324;2024-03-06T12:05:55;98549.13;;;15.54;57.87
9740;BME280;4909;42.680;26.324;2024-03-06T12:08:22;98547.00;;;15.45;58.10
9740;BME280;4909;42.680;26.324;2024-03-06T12:10:49;98551.06;;;15.64;58.06
9740;BME280;4909;42.680;26.324;2024-03-06T12:13:17;98561.16;;;15.47;56.46
9740;BME280;4909;42.680;26.324;2024-03-06T12:15:46;98548.28;;;15.53;55.78
9740;BME280;4909;42.680;26.324;2024-03-06T12:18:16;98546.91;;;15.60;56.56
9740;BME280;4909;42.680;26.324;2024-03-06T12:20:44;98547.50;;;15.51;55.80
9740;BME280;4909;42.680;26.324;2024-03-06T12:23:19;98539.53;;;15.50;56.17
9740;BME280;4909;42.680;26.324;2024-03-06T12:25:48;98478.75;;;15.12;57.01
9740;BME280;4909;42.680;26.324;2024-03-06T12:28:15;98544.75;;;15.53;56.26
9740;BME280;4909;42.680;26.324;2024-03-06T12:30:43;98550.97;;;15.39;56.88
9740;BME280;4909;42.680;26.324;2024-03-06T12:33:17;98538.75;;;14.94;57.96
9740;BME280;4909;42.680;26.324;2024-03-06T12:35:46;98538.69;;;15.22;57.37
9740;BME280;4909;42.680;26.324;2024-03-06T12:38:14;98539.88;;;15.31;56.75
9740;BME280;4909;42.680;26.324;2024-03-06T12:40:41;98550.50;;;15.33;56.96
9740;BME280;4909;42.680;26.324;2024-03-06T12:43:09;98534.19;;;15.50;56.86
9740;BME280;4909;42.680;26.324;2024-03-06T12:45:36;98537.91;;;15.61;56.56
9740;BME280;4909;42.680;26.324;2024-03-06T12:48:05;98540.59;;;15.61;56.01
9740;BME280;4909;42.680;26.324;2024-03-06T12:50:33;98541.88;;;15.69;56.06
9740;BME280;4909;42.680;26.324;2024-03-06T12:53:00;98536.41;;;15.97;54.82
9740;BME280;4909;42.680;26.324;2024-03-06T12:55:30;98541.38;;;16.28;53.65
9740;BME280;4909;42.680;26.324;2024-03-06T12:57:57;98542.13;;;16.43;52.44
9740;BME280;4909;42.680;26.324;2024-03-06T13:00:24;98547.16;;;16.47;51.88
9740;BME280;4909;42.680;26.324;2024-03-06T13:02:51;98549.44;;;16.41;51.22
9740;BME280;4909;42.680;26.324;2024-03-06T13:05:18;98545.97;;;16.14;50.64
9740;BME280;4909;42.680;26.324;2024-03-06T13:07:46;98552.81;;;16.18;51.10
9740;BME280;4909;42.680;26.324;2024-03-06T13:10:13;98554.06;;;15.99;50.23
9740;BME280;4909;42.680;26.324;2024-03-06T13:12:40;98550.13;;;15.92;52.46
9740;BME280;4909;42.680;26.324;2024-03-06T13:15:08;98549.00;;;15.82;50.73